createdAt,value
2023-04-16T00:00:36.338Z,5.10
2023-04-16T00:05:38.115Z,5.10
2023-04-16T00:10:40.023Z,5.20
2023-04-16T00:15:41.781Z,5.10
2023-04-16T00:20:43.560Z,5.00
2023-04-16T00:25:45.538Z,5.00
2023-04-16T00:30:47.311Z,5.00
2023-04-16T00:35:49.192Z,4.90
2023-04-16T00:40:51.210Z,4.80
2023-04-16T00:45:56.046Z,4.70
2023-04-16T00:50:58.458Z,4.60
2023-04-16T00:56:02.297Z,4.60
2023-04-16T01:01:04.168Z,4.60
2023-04-16T01:06:07.496Z,4.40
2023-04-16T01:11:11.199Z,4.40
2023-04-16T01:16:13.191Z,4.40
2023-04-16T01:21:15.046Z,4.40
2023-04-16T01:26:16.822Z,4.30
2023-04-16T01:31:18.670Z,4.30
2023-04-16T01:36:30.763Z,4.20
2023-04-16T01:41:32.643Z,4.20
2023-04-16T01:46:35.727Z,4.20
2023-04-16T01:51:37.567Z,4.30
2023-04-16T01:56:39.358Z,4.30
2023-04-16T02:01:42.465Z,4.40
2023-04-16T02:06:44.804Z,4.40
2023-04-16T02:11:48.873Z,4.50
2023-04-16T02:16:51.048Z,4.50
2023-04-16T02:22:07.939Z,4.50
2023-04-16T02:27:09.801Z,4.40
2023-04-16T02:32:11.853Z,4.40
2023-04-16T02:37:16.574Z,4.40
2023-04-16T02:42:18.405Z,4.30
2023-04-16T02:47:20.528Z,4.30
2023-04-16T02:52:22.361Z,4.30
2023-04-16T02:57:24.374Z,4.20
2023-04-16T03:02:27.241Z,4.20
2023-04-16T03:07:29.104Z,4.10
2023-04-16T03:12:30.908Z,4.00
2023-04-16T03:17:32.822Z,3.90
2023-04-16T03:22:34.665Z,3.80
2023-04-16T03:27:39.599Z,3.80
2023-04-16T03:32:41.917Z,3.60
2023-04-16T03:37:44.614Z,3.50
2023-04-16T03:42:46.444Z,3.40
2023-04-16T03:47:52.511Z,3.40
2023-04-16T03:52:57.538Z,3.30
2023-04-16T03:58:03.038Z,3.30
2023-04-16T04:03:06.739Z,3.20
2023-04-16T04:08:09.556Z,3.00
2023-04-16T04:13:11.962Z,3.00
2023-04-16T04:18:13.978Z,2.90
2023-04-16T04:23:16.014Z,2.90
2023-04-16T04:28:20.316Z,2.90
2023-04-16T04:33:22.242Z,2.80
2023-04-16T04:38:26.471Z,2.80
2023-04-16T04:43:28.910Z,2.90
2023-04-16T04:48:31.010Z,2.90
2023-04-16T04:53:32.921Z,3.00
2023-04-16T04:58:34.846Z,3.00
2023-04-16T05:03:37.493Z,3.00
2023-04-16T05:08:39.438Z,3.10
2023-04-16T05:13:41.565Z,3.00
2023-04-16T05:18:43.405Z,3.00
2023-04-16T05:23:45.208Z,3.20
2023-04-16T05:28:46.992Z,4.40
2023-04-16T05:33:48.811Z,5.40
2023-04-16T05:38:50.702Z,5.70
2023-04-16T05:43:52.513Z,5.90
2023-04-16T05:48:54.623Z,6.90
2023-04-16T05:53:56.435Z,7.50
2023-04-16T05:58:58.175Z,7.50
2023-04-16T06:04:00.067Z,7.00
2023-04-16T06:09:02.023Z,7.60
2023-04-16T06:14:03.884Z,7.90
2023-04-16T06:19:05.674Z,7.70
2023-04-16T06:24:07.428Z,7.80
2023-04-16T06:29:09.319Z,7.70
2023-04-16T06:34:11.182Z,8.40
2023-04-16T06:39:13.068Z,8.80
2023-04-16T06:44:15.216Z,9.10
2023-04-16T06:49:17.014Z,9.20
2023-04-16T06:54:19.790Z,9.40
2023-04-16T06:59:21.605Z,9.00
2023-04-16T07:04:23.726Z,8.90
2023-04-16T07:09:26.751Z,9.20
2023-04-16T07:14:28.666Z,9.40
2023-04-16T07:19:32.642Z,9.60
2023-04-16T07:24:35.663Z,9.60
2023-04-16T07:29:37.412Z,9.20
2023-04-16T07:34:39.151Z,8.90
2023-04-16T07:39:40.924Z,8.90
2023-04-16T07:44:42.690Z,8.90
2023-04-16T07:49:44.514Z,8.90
2023-04-16T07:54:47.094Z,9.30
2023-04-16T07:59:48.916Z,9.50
2023-04-16T08:04:51.121Z,9.60
2023-04-16T08:09:53.381Z,9.60
2023-04-16T08:14:55.152Z,9.40
2023-04-16T08:19:56.902Z,9.30
2023-04-16T08:24:58.667Z,9.20
2023-04-16T08:30:00.434Z,8.90
2023-04-16T08:35:02.305Z,8.70
2023-04-16T08:40:04.256Z,8.70
2023-04-16T08:45:25.403Z,8.80
2023-04-16T08:50:28.217Z,8.80
2023-04-16T08:55:41.256Z,8.90
2023-04-16T09:00:44.075Z,9.20
2023-04-16T09:05:47.182Z,9.30
2023-04-16T09:10:50.380Z,9.40
2023-04-16T09:15:53.801Z,9.50
2023-04-16T09:20:57.213Z,9.70
2023-04-16T09:25:59.728Z,9.70
2023-04-16T09:31:15.706Z,9.80
2023-04-16T09:36:23.075Z,9.70
2023-04-16T09:41:30.107Z,9.80
2023-04-16T09:46:34.980Z,9.80
2023-04-16T09:51:37.888Z,9.90
2023-04-16T09:56:44.193Z,10.10
2023-04-16T10:01:57.280Z,10.30
2023-04-16T10:07:15.624Z,10.50
2023-04-16T10:12:17.560Z,10.50
2023-04-16T10:17:19.844Z,10.90
2023-04-16T10:22:21.590Z,11.00
2023-04-16T10:27:24.105Z,11.10
2023-04-16T10:32:28.567Z,11.10
2023-04-16T10:37:32.014Z,11.20
2023-04-16T10:42:34.531Z,11.30
2023-04-16T10:47:40.685Z,11.30
2023-04-16T10:52:42.545Z,11.40
2023-04-16T10:57:44.371Z,11.50
2023-04-16T11:02:46.479Z,11.60
2023-04-16T11:07:49.789Z,11.50
2023-04-16T11:12:53.111Z,11.70
2023-04-16T11:17:54.912Z,11.90
2023-04-16T11:22:58.066Z,11.90
2023-04-16T11:27:59.873Z,12.30
2023-04-16T11:33:19.715Z,13.00
2023-04-16T11:38:32.144Z,13.10
2023-04-16T11:43:33.894Z,12.90
2023-04-16T11:48:52.985Z,12.90
2023-04-16T11:53:55.304Z,13.20
2023-04-16T11:59:06.957Z,13.40
2023-04-16T12:04:09.599Z,12.90
2023-04-16T12:09:27.236Z,12.40
2023-04-16T12:14:29.603Z,12.20
2023-04-16T12:19:31.477Z,11.90
2023-04-16T12:24:36.869Z,11.80
2023-04-16T12:29:38.768Z,12.10
2023-04-16T12:34:51.339Z,12.70
2023-04-16T12:39:53.475Z,13.10
2023-04-16T12:44:55.479Z,13.20
2023-04-16T12:50:00.576Z,13.00
2023-04-16T12:55:02.919Z,12.60
2023-04-16T13:00:06.597Z,12.40
2023-04-16T13:05:08.888Z,12.20
2023-04-16T13:10:10.868Z,12.00
2023-04-16T13:15:12.757Z,11.70
2023-04-16T13:20:14.581Z,11.20
2023-04-16T13:25:16.404Z,10.80
2023-04-16T13:30:18.290Z,10.40
2023-04-16T13:35:20.141Z,10.10
2023-04-16T13:40:22.069Z,9.80
2023-04-16T13:45:24.208Z,9.60
2023-04-16T13:50:25.944Z,9.40
2023-04-16T13:55:28.016Z,9.50
2023-04-16T14:00:29.981Z,9.40
2023-04-16T14:05:31.787Z,9.50
2023-04-16T14:10:33.539Z,9.60
2023-04-16T14:15:35.335Z,9.80
2023-04-16T14:20:39.672Z,9.90
2023-04-16T14:25:41.575Z,10.00
2023-04-16T14:30:43.379Z,10.00
2023-04-16T14:35:45.617Z,10.10
2023-04-16T14:40:48.066Z,10.10
2023-04-16T14:45:49.855Z,10.10
2023-04-16T14:50:51.842Z,10.20
2023-04-16T14:55:53.712Z,10.10
2023-04-16T15:00:55.777Z,10.20
2023-04-16T15:05:58.043Z,10.20
2023-04-16T15:10:59.923Z,10.20
2023-04-16T15:16:01.909Z,10.20
2023-04-16T15:21:04.171Z,10.20
2023-04-16T15:26:05.963Z,10.20
2023-04-16T15:31:07.836Z,10.10
2023-04-16T15:36:09.580Z,10.10
2023-04-16T15:41:11.433Z,10.10
2023-04-16T15:46:13.284Z,10.20
2023-04-16T15:51:15.148Z,10.20
2023-04-16T15:56:17.029Z,10.10
2023-04-16T16:01:18.844Z,10.10
2023-04-16T16:06:21.042Z,10.10
2023-04-16T16:11:22.842Z,10.00
2023-04-16T16:16:24.912Z,9.90
2023-04-16T16:21:28.982Z,9.80
2023-04-16T16:26:30.791Z,9.60
2023-04-16T16:31:32.795Z,9.50
2023-04-16T16:36:37.378Z,9.50
2023-04-16T16:41:42.084Z,9.50
2023-04-16T16:46:43.938Z,9.30
2023-04-16T16:51:46.725Z,9.10
2023-04-16T16:56:48.462Z,9.10
2023-04-16T17:01:50.290Z,8.80
2023-04-16T17:06:52.263Z,8.70
2023-04-16T17:11:54.315Z,8.70
2023-04-16T17:16:56.132Z,8.60
2023-04-16T17:21:57.969Z,8.50
2023-04-16T17:26:59.821Z,8.30
2023-04-16T17:32:01.682Z,8.10
2023-04-16T17:37:03.552Z,8.00
2023-04-16T17:42:05.451Z,7.90
2023-04-16T17:47:07.354Z,7.80
2023-04-16T17:52:09.292Z,7.60
2023-04-16T17:57:11.053Z,7.50
2023-04-16T18:02:12.872Z,7.40
2023-04-16T18:07:15.339Z,7.30
2023-04-16T18:12:17.222Z,7.10
2023-04-16T18:17:21.762Z,7.00
2023-04-16T18:22:24.361Z,6.90
2023-04-16T18:27:27.456Z,6.90
2023-04-16T18:32:31.244Z,6.70
2023-04-16T18:37:33.431Z,6.50
2023-04-16T18:42:36.114Z,6.50
2023-04-16T18:47:39.892Z,6.50
2023-04-16T18:52:41.926Z,6.40
2023-04-16T18:57:44.034Z,6.20
2023-04-16T19:02:46.156Z,6.10
2023-04-16T19:07:48.087Z,6.00
2023-04-16T19:12:49.916Z,6.10
2023-04-16T19:17:51.769Z,5.90
2023-04-16T19:22:53.586Z,5.90
2023-04-16T19:27:56.535Z,5.90
2023-04-16T19:32:58.376Z,5.70
2023-04-16T19:38:00.628Z,5.70
2023-04-16T19:43:02.490Z,5.70
2023-04-16T19:48:04.479Z,5.70
2023-04-16T19:53:06.362Z,5.60
2023-04-16T19:58:08.858Z,5.50
2023-04-16T20:03:10.863Z,5.50
2023-04-16T20:08:12.687Z,5.50
2023-04-16T20:13:15.236Z,5.60
2023-04-16T20:18:18.444Z,5.70
2023-04-16T20:23:20.287Z,5.80
2023-04-16T20:28:22.145Z,5.80
2023-04-16T20:33:26.244Z,5.90
2023-04-16T20:38:32.131Z,5.90
2023-04-16T20:43:38.277Z,5.90
2023-04-16T20:48:40.099Z,6.00
2023-04-16T20:53:41.849Z,6.00
2023-04-16T20:58:43.690Z,6.00
2023-04-16T21:03:45.943Z,6.00
2023-04-16T21:08:47.898Z,6.00
2023-04-16T21:13:49.679Z,6.00
2023-04-16T21:18:51.413Z,5.90
2023-04-16T21:23:53.148Z,5.90
2023-04-16T21:28:55.260Z,5.80
2023-04-16T21:33:57.214Z,5.80
2023-04-16T21:38:58.974Z,5.70
2023-04-16T21:44:00.727Z,5.50
2023-04-16T21:49:02.618Z,5.40
2023-04-16T21:54:04.368Z,5.30
2023-04-16T21:59:06.341Z,5.30
2023-04-16T22:04:09.857Z,5.30
2023-04-16T22:09:12.012Z,5.20
2023-04-16T22:14:14.603Z,5.10
2023-04-16T22:19:17.641Z,5.00
2023-04-16T22:24:19.873Z,4.90
2023-04-16T22:29:21.625Z,4.70
2023-04-16T22:34:23.379Z,4.70
2023-04-16T22:39:25.140Z,4.60
2023-04-16T22:44:26.967Z,4.50
2023-04-16T22:49:33.308Z,4.50
2023-04-16T22:54:35.130Z,4.50
2023-04-16T22:59:36.999Z,4.40
2023-04-16T23:04:38.784Z,4.40
2023-04-16T23:09:41.172Z,4.30
2023-04-16T23:14:45.851Z,4.20
2023-04-16T23:19:47.614Z,4.20
2023-04-16T23:24:49.388Z,4.30
2023-04-16T23:29:51.257Z,4.40
2023-04-16T23:34:53.242Z,4.40
2023-04-16T23:39:55.134Z,4.30
2023-04-16T23:44:56.991Z,4.40
2023-04-16T23:49:58.843Z,4.40
2023-04-16T23:55:00.731Z,4.50
